Time;durP1;ratioP1;P1;durP2;ratioP2;P2;SDS_P1;SDS_P2;PMS_P1;PMS_P2;Temp;Humidity;BMP_temperature;BMP_pressure;BME280_temperature;BME280_humidity;BME280_pressure;Samples;Min_cycle;Max_cycle;Signal;HPM_P1;HPM_P2
2023/05/13 00:00:05;;;;;;;10.32;8.15;;;13.10;99.90;;;;;;5012978;28;20133;-72
2023/05/13 00:02:31;;;;;;;10.40;8.88;;;13.00;99.90;;;;;;5012580;28;20038;-73
2023/05/13 00:04:56;;;;;;;10.05;8.25;;;13.00;99.90;;;;;;5012440;28;20056;-72
2023/05/13 00:07:22;;;;;;;9.60;8.60;;;13.00;99.90;;;;;;5012385;28;20046;-72
2023/05/13 00:09:48;;;;;;;9.68;8.75;;;13.00;99.90;;;;;;4994814;28;20042;-72
2023/05/13 00:12:13;;;;;;;8.32;7.45;;;12.90;99.90;;;;;;4995256;28;20054;-71
2023/05/13 00:14:39;;;;;;;9.63;8.43;;;12.90;99.90;;;;;;5012389;28;20387;-72
2023/05/13 00:17:05;;;;;;;8.13;7.30;;;12.90;99.90;;;;;;5015937;28;20521;-72
2023/05/13 00:19:31;;;;;;;9.80;8.00;;;12.90;99.90;;;;;;5016098;28;20046;-72
2023/05/13 00:21:57;;;;;;;8.88;8.02;;;12.90;99.90;;;;;;5016192;28;20069;-72
2023/05/13 00:24:22;;;;;;;9.80;8.88;;;12.80;99.90;;;;;;5016071;28;20452;-71
2023/05/13 00:26:48;;;;;;;8.85;8.15;;;12.90;99.90;;;;;;5015773;28;20137;-71
2023/05/13 00:29:14;;;;;;;10.23;9.13;;;12.80;99.90;;;;;;5015730;28;20060;-72
2023/05/13 00:31:39;;;;;;;10.02;9.02;;;12.80;99.90;;;;;;5016490;28;20052;-71
2023/05/13 00:34:05;;;;;;;9.27;8.32;;;12.80;99.90;;;;;;5015972;28;20463;-72
2023/05/13 00:36:31;;;;;;;10.52;8.30;;;12.70;99.90;;;;;;5016274;28;20077;-72
2023/05/13 00:38:57;;;;;;;10.73;8.65;;;12.70;99.90;;;;;;5015772;28;20057;-72
2023/05/13 00:41:22;;;;;;;8.48;7.68;;;12.70;99.90;;;;;;4998623;28;20125;-72
2023/05/13 00:43:48;;;;;;;12.13;9.20;;;12.70;99.90;;;;;;5015802;28;20054;-71
2023/05/13 00:46:15;;;;;;;10.18;8.80;;;12.70;99.90;;;;;;5016045;28;20057;-72
2023/05/13 00:48:41;;;;;;;10.65;8.75;;;12.60;99.90;;;;;;5015668;28;20540;-72
2023/05/13 00:51:07;;;;;;;9.73;8.35;;;12.60;99.90;;;;;;4998798;28;20050;-73
2023/05/13 00:53:33;;;;;;;10.85;8.52;;;12.60;99.90;;;;;;5015585;28;20049;-73
2023/05/13 00:55:58;;;;;;;10.68;8.55;;;12.50;99.90;;;;;;5015517;28;20100;-73
2023/05/13 00:58:24;;;;;;;8.45;7.65;;;12.50;99.90;;;;;;5015864;28;20068;-74
2023/05/13 01:01:18;;;;;;;10.20;8.73;;;12.50;99.90;;;;;;5016005;28;20046;-74
2023/05/13 01:04:05;;;;;;;12.25;8.40;;;12.50;99.90;;;;;;5014721;28;20477;-74
2023/05/13 01:06:35;;;;;;;9.23;8.32;;;12.40;99.90;;;;;;5015301;28;20053;-73
2023/05/13 01:09:07;;;;;;;9.52;8.13;;;12.40;99.90;;;;;;5015510;28;20121;-74
2023/05/13 01:11:37;;;;;;;10.13;8.52;;;12.40;99.90;;;;;;5015433;28;20124;-74
2023/05/13 01:14:20;;;;;;;12.52;8.98;;;12.40;99.90;;;;;;5015297;28;20085;-73
2023/05/13 01:16:58;;;;;;;11.80;8.95;;;12.40;99.90;;;;;;5015740;28;20056;-73
2023/05/13 01:19:45;;;;;;;9.48;7.90;;;12.40;99.90;;;;;;5015152;28;20049;-73
2023/05/13 01:22:11;;;;;;;11.00;8.88;;;12.40;99.90;;;;;;5015027;28;20092;-73
2023/05/13 01:24:37;;;;;;;9.60;8.15;;;12.30;99.90;;;;;;5015093;28;20049;-73
2023/05/13 01:27:03;;;;;;;11.43;9.68;;;12.30;99.90;;;;;;5013970;28;20046;-73
2023/05/13 01:29:32;;;;;;;16.80;10.15;;;12.30;99.90;;;;;;5015057;28;20116;-73
2023/05/13 01:31:59;;;;;;;9.75;8.77;;;12.30;99.90;;;;;;5015313;28;20049;-78
2023/05/13 01:34:26;;;;;;;10.95;9.85;;;12.30;99.90;;;;;;4981148;28;20148;-78
2023/05/13 01:36:52;;;;;;;10.68;9.57;;;12.30;99.90;;;;;;5014878;28;20171;-78
2023/05/13 01:39:18;;;;;;;11.05;9.57;;;12.30;99.90;;;;;;5014619;28;20056;-78
2023/05/13 01:41:44;;;;;;;10.73;9.65;;;12.20;99.90;;;;;;4981539;28;20053;-78
2023/05/13 01:44:10;;;;;;;12.18;9.85;;;12.20;99.90;;;;;;5014722;28;20137;-78
2023/05/13 01:46:39;;;;;;;11.13;10.02;;;12.20;99.90;;;;;;5014657;28;20132;-78
2023/05/13 01:49:06;;;;;;;14.57;10.85;;;12.20;99.90;;;;;;5014626;28;20463;-78
2023/05/13 01:51:32;;;;;;;10.23;9.15;;;12.10;99.90;;;;;;4997808;28;20455;-77
2023/05/13 01:53:58;;;;;;;9.45;8.55;;;12.10;99.90;;;;;;5014475;28;20042;-78
2023/05/13 01:56:23;;;;;;;10.35;8.90;;;12.20;99.90;;;;;;4980887;28;20045;-79
2023/05/13 01:58:49;;;;;;;12.07;10.07;;;12.20;99.90;;;;;;5014611;28;20512;-79
2023/05/13 02:01:15;;;;;;;11.43;10.38;;;12.20;99.90;;;;;;5014440;28;20471;-79
2023/05/13 02:03:40;;;;;;;12.20;9.93;;;12.10;99.90;;;;;;4997693;28;20470;-79
2023/05/13 02:06:06;;;;;;;10.77;9.73;;;12.10;99.90;;;;;;5014371;28;20483;-78
2023/05/13 02:08:31;;;;;;;10.63;9.68;;;12.10;99.90;;;;;;4997194;28;20072;-78
2023/05/13 02:10:58;;;;;;;11.80;9.32;;;12.10;99.90;;;;;;4997157;28;20124;-79
2023/05/13 02:13:25;;;;;;;11.57;9.63;;;12.00;99.90;;;;;;4997212;28;20053;-79
2023/05/13 02:15:51;;;;;;;11.40;9.60;;;12.00;99.90;;;;;;5014243;28;20049;-79
2023/05/13 02:18:17;;;;;;;11.45;10.20;;;12.00;99.90;;;;;;5019381;28;20045;-79
2023/05/13 02:20:43;;;;;;;13.13;9.85;;;12.00;99.90;;;;;;5019834;28;20535;-77
2023/05/13 02:23:09;;;;;;;11.85;10.27;;;12.00;99.90;;;;;;5019108;28;20048;-79
2023/05/13 02:25:35;;;;;;;13.25;10.98;;;12.00;99.90;;;;;;5019757;28;20080;-78
2023/05/13 02:28:00;;;;;;;12.25;10.48;;;12.00;99.90;;;;;;5015156;28;20073;-79
2023/05/13 02:30:26;;;;;;;14.60;10.90;;;11.90;99.90;;;;;;4998067;28;20092;-78
2023/05/13 02:32:53;;;;;;;10.93;9.95;;;11.90;99.90;;;;;;5000198;28;20448;-77
2023/05/13 02:35:18;;;;;;;11.35;10.23;;;11.90;99.90;;;;;;4999599;28;20054;-78
2023/05/13 02:37:45;;;;;;;10.90;9.60;;;11.90;99.90;;;;;;4999048;28;20053;-77
2023/05/13 02:40:11;;;;;;;11.82;10.18;;;11.90;99.90;;;;;;5014940;28;20052;-79
2023/05/13 02:42:55;;;;;;;15.88;12.07;;;11.90;99.90;;;;;;4999502;28;20119;-79
2023/05/13 02:45:21;;;;;;;12.75;10.02;;;11.90;99.90;;;;;;5013928;28;20050;-79
2023/05/13 02:47:47;;;;;;;11.23;10.18;;;11.90;99.90;;;;;;4997235;28;20052;-79
2023/05/13 02:50:12;;;;;;;16.50;11.27;;;11.80;99.90;;;;;;4997075;28;20355;-79
2023/05/13 02:52:38;;;;;;;14.48;11.95;;;11.80;99.90;;;;;;5013636;28;20042;-79
2023/05/13 02:55:08;;;;;;;13.50;12.20;;;11.80;99.90;;;;;;4996429;28;20054;-79
2023/05/13 02:57:35;;;;;;;13.98;11.35;;;11.70;99.90;;;;;;5013692;28;20052;-79
2023/05/13 03:00:03;;;;;;;14.73;11.68;;;11.70;99.90;;;;;;4996227;28;20141;-79
2023/05/13 03:02:28;;;;;;;13.60;12.20;;;11.60;99.90;;;;;;5013431;28;20042;-84
2023/05/13 03:04:55;;;;;;;16.90;12.82;;;11.60;99.90;;;;;;5013749;28;20099;-79
2023/05/13 03:07:21;;;;;;;14.23;12.73;;;11.60;99.90;;;;;;5013433;28;20060;-79
2023/05/13 03:09:47;;;;;;;12.88;11.57;;;11.60;99.90;;;;;;4996017;28;20129;-78
2023/05/13 03:12:13;;;;;;;12.55;11.23;;;11.60;99.90;;;;;;5013263;28;20081;-78
2023/05/13 03:14:39;;;;;;;14.70;12.57;;;11.60;99.90;;;;;;5013375;28;20045;-79
2023/05/13 03:17:05;;;;;;;17.70;13.23;;;11.60;99.90;;;;;;4996627;28;20056;-79
2023/05/13 03:19:32;;;;;;;14.05;12.57;;;11.60;99.90;;;;;;5013174;28;20057;-79
2023/05/13 03:21:58;;;;;;;13.30;11.38;;;11.60;99.90;;;;;;4979976;28;20050;-79
2023/05/13 03:24:24;;;;;;;13.50;12.25;;;11.60;99.90;;;;;;5013113;28;20176;-78
2023/05/13 03:26:49;;;;;;;15.52;13.45;;;11.50;99.90;;;;;;5013132;28;20459;-79
2023/05/13 03:29:15;;;;;;;14.88;13.27;;;11.50;99.90;;;;;;4996084;28;20567;-78
2023/05/13 03:31:41;;;;;;;15.55;13.90;;;11.50;99.90;;;;;;4995925;28;20046;-79
2023/05/13 03:34:06;;;;;;;19.50;15.32;;;11.50;99.90;;;;;;4996011;28;20069;-78
2023/05/13 03:36:32;;;;;;;15.65;14.00;;;11.50;99.90;;;;;;5013002;28;20498;-78
2023/05/13 03:38:58;;;;;;;15.68;14.07;;;11.40;99.90;;;;;;4979438;28;20097;-79
2023/05/13 03:41:24;;;;;;;15.88;14.18;;;11.40;99.90;;;;;;4995350;28;20056;-79
2023/05/13 03:43:50;;;;;;;15.65;13.07;;;11.40;99.90;;;;;;5013325;28;20131;-78
2023/05/13 03:46:15;;;;;;;17.45;14.02;;;11.40;99.90;;;;;;5013446;28;20119;-78
2023/05/13 03:48:41;;;;;;;16.08;13.63;;;11.40;99.90;;;;;;5012681;28;20531;-79
2023/05/13 03:51:07;;;;;;;19.40;13.57;;;11.40;99.90;;;;;;5016629;28;20336;-77
2023/05/13 03:53:32;;;;;;;13.75;12.32;;;11.40;99.90;;;;;;5019140;28;20045;-78
2023/05/13 03:55:58;;;;;;;15.27;13.68;;;11.40;99.90;;;;;;5004026;28;20057;-78
2023/05/13 03:58:24;;;;;;;16.30;14.43;;;11.40;99.90;;;;;;5019148;28;20052;-78
2023/05/13 04:00:49;;;;;;;18.83;15.75;;;11.40;99.90;;;;;;5001902;28;20395;-78
2023/05/13 04:03:16;;;;;;;16.02;13.80;;;11.30;99.90;;;;;;5019103;28;20089;-78
2023/05/13 04:05:43;;;;;;;18.80;14.50;;;11.40;99.90;;;;;;5001813;28;20124;-78
2023/05/13 04:08:10;;;;;;;16.10;14.38;;;11.30;99.90;;;;;;5001673;28;20475;-77
2023/05/13 04:10:35;;;;;;;15.20;13.60;;;11.40;99.90;;;;;;5019269;28;20089;-78
2023/05/13 04:13:01;;;;;;;16.70;13.93;;;11.40;99.90;;;;;;5019434;28;20377;-77
2023/05/13 04:15:27;;;;;;;16.98;13.43;;;11.40;99.90;;;;;;5019256;28;20049;-82
2023/05/13 04:17:52;;;;;;;15.40;13.75;;;11.40;99.90;;;;;;5019389;28;20402;-82
2023/05/13 04:20:19;;;;;;;13.88;12.38;;;11.40;99.90;;;;;;5019183;28;20142;-77
2023/05/13 04:22:44;;;;;;;17.70;13.85;;;11.40;99.90;;;;;;5019048;28;20042;-79
2023/05/13 04:25:10;;;;;;;13.57;12.07;;;11.50;99.90;;;;;;5002271;28;20053;-78
2023/05/13 04:27:36;;;;;;;14.55;12.20;;;11.50;99.90;;;;;;5019057;28;20046;-78
2023/05/13 04:30:02;;;;;;;15.90;12.82;;;11.50;99.90;;;;;;5001344;28;20057;-78
2023/05/13 04:32:28;;;;;;;15.80;12.13;;;11.50;99.90;;;;;;5001980;28;20543;-78
2023/05/13 04:34:54;;;;;;;15.00;12.40;;;11.60;99.90;;;;;;5018831;28;20438;-79
2023/05/13 04:37:19;;;;;;;13.90;12.13;;;11.60;99.90;;;;;;5018860;28;20524;-80
2023/05/13 04:39:46;;;;;;;17.42;11.90;;;11.70;99.90;;;;;;5002150;28;20058;-81
2023/05/13 04:42:15;;;;;;;14.05;11.88;;;11.70;99.90;;;;;;5001446;28;20054;-79
2023/05/13 04:44:41;;;;;;;14.35;12.90;;;11.80;99.90;;;;;;5018688;28;20061;-76
2023/05/13 04:47:07;;;;;;;13.90;11.60;;;11.80;99.90;;;;;;5018635;28;20124;-77
2023/05/13 04:49:32;;;;;;;12.90;11.40;;;11.90;99.90;;;;;;5018639;28;20482;-81
2023/05/13 04:52:01;;;;;;;11.63;10.43;;;11.90;99.90;;;;;;5018535;28;20095;-75
2023/05/13 04:54:26;;;;;;;13.98;12.43;;;12.00;99.90;;;;;;5018552;28;20045;-77
2023/05/13 04:56:52;;;;;;;12.63;11.32;;;12.00;99.90;;;;;;5018867;28;20061;-77
2023/05/13 04:59:18;;;;;;;11.77;10.57;;;12.10;99.90;;;;;;5018968;28;20067;-77
2023/05/13 05:01:44;;;;;;;15.90;11.93;;;12.10;99.90;;;;;;5018246;28;20112;-78
2023/05/13 05:04:10;;;;;;;13.02;11.18;;;12.10;99.90;;;;;;5023215;28;20107;-79
2023/05/13 05:06:36;;;;;;;12.70;10.82;;;12.20;99.90;;;;;;5020832;28;20106;-78
2023/05/13 05:09:02;;;;;;;12.73;11.23;;;12.20;99.90;;;;;;5018131;28;20134;-78
2023/05/13 05:11:28;;;;;;;12.73;11.35;;;12.30;99.90;;;;;;5015356;28;20038;-80
2023/05/13 05:13:54;;;;;;;12.38;10.70;;;12.40;99.90;;;;;;5015605;28;20129;-78
2023/05/13 05:16:20;;;;;;;12.90;11.68;;;12.40;99.90;;;;;;5015806;28;20115;-78
2023/05/13 05:18:45;;;;;;;13.52;11.00;;;12.40;99.90;;;;;;4998413;28;20199;-79
2023/05/13 05:21:11;;;;;;;19.90;11.95;;;12.50;99.90;;;;;;4998046;28;20052;-79
2023/05/13 05:23:37;;;;;;;13.02;10.23;;;12.50;99.90;;;;;;4997938;28;20497;-80
2023/05/13 05:26:03;;;;;;;12.50;11.27;;;12.40;99.90;;;;;;5014917;28;20044;-80
2023/05/13 05:28:29;;;;;;;19.17;11.98;;;12.40;99.90;;;;;;5015591;28;20041;-79
2023/05/13 05:30:55;;;;;;;15.85;11.35;;;12.40;99.90;;;;;;5015532;28;20049;-79
2023/05/13 05:33:21;;;;;;;14.60;11.43;;;12.50;99.90;;;;;;5014800;28;20494;-79
2023/05/13 05:35:47;;;;;;;12.75;10.60;;;12.60;99.90;;;;;;5015183;28;20060;-78
2023/05/13 05:38:14;;;;;;;12.55;10.85;;;12.70;99.90;;;;;;5014754;28;20136;-80
2023/05/13 05:40:42;;;;;;;14.77;11.73;;;12.80;99.90;;;;;;4998220;28;20058;-80
2023/05/13 05:43:09;;;;;;;15.73;11.98;;;12.90;99.90;;;;;;5015137;28;20132;-82
2023/05/13 05:45:39;;;;;;;12.70;10.93;;;13.00;99.90;;;;;;4997742;28;20124;-82
2023/05/13 05:48:05;;;;;;;12.68;11.13;;;13.10;99.90;;;;;;4998819;28;20042;-75
2023/05/13 05:50:32;;;;;;;11.55;10.43;;;13.20;99.90;;;;;;5015155;28;20496;-81
2023/05/13 05:52:58;;;;;;;13.55;11.13;;;13.30;99.90;;;;;;4982068;28;20042;-81
2023/05/13 05:55:25;;;;;;;13.35;11.13;;;13.40;99.90;;;;;;5015625;28;20084;-79
2023/05/13 05:57:50;;;;;;;13.30;11.75;;;13.40;99.90;;;;;;5015310;28;20398;-79
2023/05/13 06:00:17;;;;;;;12.65;11.18;;;13.50;99.90;;;;;;4997552;28;20125;-80
2023/05/13 06:02:43;;;;;;;18.80;12.27;;;13.50;99.90;;;;;;5015228;28;20125;-81
2023/05/13 06:05:09;;;;;;;14.40;11.18;;;13.70;99.90;;;;;;4997157;28;20089;-81
2023/05/13 06:07:35;;;;;;;11.57;10.30;;;13.80;99.90;;;;;;4997030;28;20053;-79
2023/05/13 06:10:00;;;;;;;11.35;10.13;;;13.90;99.90;;;;;;5014742;28;20116;-82
2023/05/13 06:12:26;;;;;;;13.15;11.15;;;14.00;99.90;;;;;;5014469;28;20050;-79
2023/05/13 06:14:52;;;;;;;11.00;9.70;;;14.00;99.90;;;;;;5013822;28;20042;-80
2023/05/13 06:17:17;;;;;;;11.63;10.43;;;14.20;99.90;;;;;;5014720;28;20054;-83
2023/05/13 06:19:43;;;;;;;15.48;10.38;;;14.30;99.90;;;;;;4980785;28;20050;-76
2023/05/13 06:22:09;;;;;;;12.90;10.02;;;14.40;99.90;;;;;;5014606;28;20105;-77
2023/05/13 06:24:36;;;;;;;14.07;10.63;;;14.50;99.90;;;;;;5014522;28;20108;-79
2023/05/13 06:27:01;;;;;;;11.15;9.63;;;14.60;99.90;;;;;;5013694;28;20588;-80
2023/05/13 06:29:27;;;;;;;10.85;9.15;;;14.90;99.90;;;;;;5013857;28;20128;-80
2023/05/13 06:31:53;;;;;;;11.95;8.98;;;15.00;99.90;;;;;;5014463;28;20097;-71
2023/05/13 06:34:19;;;;;;;10.23;8.70;;;15.20;99.90;;;;;;5013978;28;20049;-72
2023/05/13 06:36:45;;;;;;;9.57;8.10;;;15.60;99.90;;;;;;5013695;28;20053;-70
2023/05/13 06:39:11;;;;;;;8.57;7.25;;;16.60;99.90;;;;;;5013686;28;20407;-72
2023/05/13 06:41:38;;;;;;;8.40;7.60;;;17.70;99.90;;;;;;5013667;28;20124;-73
2023/05/13 06:44:04;;;;;;;9.48;7.03;;;18.90;99.90;;;;;;4996227;28;20129;-73
2023/05/13 06:46:30;;;;;;;9.90;7.63;;;19.90;99.90;;;;;;5012501;28;20091;-83
2023/05/13 06:48:56;;;;;;;10.20;7.28;;;20.40;99.90;;;;;;5013654;28;20054;-83
2023/05/13 06:51:23;;;;;;;9.07;5.82;;;21.20;99.90;;;;;;5013661;28;20061;-80
2023/05/13 06:53:49;;;;;;;8.52;6.32;;;21.50;99.90;;;;;;5014180;28;20107;-81
2023/05/13 06:56:16;;;;;;;9.38;6.40;;;21.90;99.90;;;;;;4996139;28;20054;-81
2023/05/13 06:58:42;;;;;;;7.50;6.60;;;22.20;99.90;;;;;;4979789;28;20045;-80
2023/05/13 07:01:09;;;;;;;8.35;5.88;;;22.10;98.80;;;;;;5013176;28;20046;-73
2023/05/13 07:03:36;;;;;;;7.05;6.35;;;22.40;99.50;;;;;;4980073;28;20077;-76
2023/05/13 07:06:03;;;;;;;9.43;6.13;;;22.20;98.70;;;;;;5013627;28;20053;-74
2023/05/13 07:08:29;;;;;;;6.68;6.07;;;22.60;98.60;;;;;;5013427;28;20048;-74
2023/05/13 07:10:55;;;;;;;7.63;6.22;;;22.70;98.10;;;;;;5014270;28;20132;-74
2023/05/13 07:13:21;;;;;;;6.25;5.43;;;23.00;96.60;;;;;;4980082;28;20143;-73
2023/05/13 07:15:47;;;;;;;6.68;5.13;;;23.50;97.20;;;;;;4996458;28;20042;-72
2023/05/13 07:18:13;;;;;;;9.20;6.25;;;24.00;96.50;;;;;;4996009;28;20545;-72
2023/05/13 07:20:39;;;;;;;7.38;6.22;;;24.10;95.50;;;;;;5013036;28;20041;-77
2023/05/13 07:23:05;;;;;;;6.80;5.57;;;24.50;95.00;;;;;;5013710;28;20114;-77
2023/05/13 07:25:31;;;;;;;6.82;5.57;;;24.40;93.90;;;;;;4995333;28;20057;-80
2023/05/13 07:27:56;;;;;;;9.25;4.93;;;24.60;93.70;;;;;;4995698;28;20041;-78
2023/05/13 07:30:22;;;;;;;6.60;5.35;;;24.90;93.70;;;;;;5013396;28;20519;-78
2023/05/13 07:32:48;;;;;;;6.55;5.32;;;25.40;93.70;;;;;;5013213;28;20053;-78
2023/05/13 07:35:15;;;;;;;6.65;5.18;;;25.70;93.40;;;;;;4995838;28;20053;-77
2023/05/13 07:37:41;;;;;;;7.93;5.43;;;25.50;92.40;;;;;;5012917;28;20053;-77
2023/05/13 07:40:07;;;;;;;7.72;5.28;;;25.60;92.60;;;;;;5013384;28;20046;-78
2023/05/13 07:42:34;;;;;;;6.07;5.22;;;24.90;91.10;;;;;;5013326;28;20038;-72
2023/05/13 07:44:59;;;;;;;6.22;5.10;;;24.90;92.00;;;;;;5012698;28;20112;-72
2023/05/13 07:47:27;;;;;;;7.40;5.57;;;25.30;91.60;;;;;;5013314;28;20049;-73
2023/05/13 07:49:53;;;;;;;5.82;4.90;;;25.40;91.30;;;;;;5012711;28;20078;-79
2023/05/13 07:52:19;;;;;;;6.07;5.50;;;25.50;90.50;;;;;;4995049;28;20137;-78
2023/05/13 07:54:45;;;;;;;6.30;4.95;;;25.60;91.00;;;;;;4979926;28;20129;-78
2023/05/13 07:57:11;;;;;;;6.22;5.63;;;26.00;90.80;;;;;;4995303;28;20049;-79
2023/05/13 07:59:36;;;;;;;7.95;5.72;;;26.00;90.80;;;;;;5012713;28;20460;-77
2023/05/13 08:02:02;;;;;;;7.50;5.13;;;25.90;90.30;;;;;;4995497;28;20061;-77
2023/05/13 08:04:28;;;;;;;5.97;5.47;;;25.20;90.20;;;;;;4995251;28;20172;-78
2023/05/13 08:06:53;;;;;;;5.68;5.10;;;25.20;90.60;;;;;;4995033;28;20049;-79
2023/05/13 08:09:19;;;;;;;7.20;5.82;;;25.30;90.40;;;;;;5012627;28;20049;-79
2023/05/13 08:11:44;;;;;;;5.90;5.30;;;25.40;89.70;;;;;;5012481;28;20131;-78
2023/05/13 08:14:10;;;;;;;6.38;5.65;;;25.50;90.30;;;;;;4994716;28;20042;-77
2023/05/13 08:16:36;;;;;;;6.13;5.22;;;25.20;90.10;;;;;;5012415;28;20050;-78
2023/05/13 08:19:02;;;;;;;6.05;5.45;;;25.80;90.30;;;;;;4996637;28;20050;-76
2023/05/13 08:21:27;;;;;;;7.22;4.80;;;26.30;89.30;;;;;;5017152;28;20121;-76
2023/05/13 08:23:53;;;;;;;10.65;6.25;;;26.40;87.80;;;;;;5017024;28;20045;-77
2023/05/13 08:26:19;;;;;;;6.47;5.85;;;26.60;87.60;;;;;;5016334;28;20049;-77
2023/05/13 08:28:45;;;;;;;8.63;5.50;;;26.20;88.00;;;;;;5015423;28;20054;-78
2023/05/13 08:31:11;;;;;;;11.80;5.95;;;26.50;88.20;;;;;;4980001;28;20129;-81
2023/05/13 08:33:38;;;;;;;6.63;5.55;;;26.70;87.90;;;;;;5012740;28;20128;-79
2023/05/13 08:36:04;;;;;;;8.27;5.78;;;26.60;87.10;;;;;;4994452;28;20042;-80
2023/05/13 08:38:32;;;;;;;6.38;5.05;;;26.00;86.70;;;;;;5016033;28;20048;-79
2023/05/13 08:40:58;;;;;;;9.00;5.32;;;25.90;87.20;;;;;;5016132;28;20060;-78
2023/05/13 08:43:27;;;;;;;6.57;4.95;;;26.00;88.30;;;;;;4998973;28;20112;-78
2023/05/13 08:45:55;;;;;;;5.45;4.75;;;26.00;85.10;;;;;;5015876;28;20046;-80
2023/05/13 08:48:23;;;;;;;6.88;5.18;;;25.80;88.80;;;;;;4998676;28;20103;-72
2023/05/13 08:50:49;;;;;;;6.15;5.22;;;26.00;88.10;;;;;;5015675;28;20050;-73
2023/05/13 08:53:17;;;;;;;7.43;4.65;;;25.90;88.40;;;;;;5015934;28;20041;-73
2023/05/13 08:55:44;;;;;;;7.30;5.50;;;26.00;88.60;;;;;;5015685;28;20481;-74
2023/05/13 08:58:10;;;;;;;5.82;5.18;;;26.60;89.70;;;;;;5015931;28;20451;-74
2023/05/13 09:00:36;;;;;;;6.15;5.15;;;26.50;88.70;;;;;;5015474;28;20058;-73
2023/05/13 09:03:02;;;;;;;5.70;3.83;;;26.80;88.00;;;;;;5015511;28;20041;-73
2023/05/13 09:05:28;;;;;;;5.88;3.60;;;26.50;84.80;;;;;;5016256;28;20046;-73
2023/05/13 09:07:55;;;;;;;3.60;3.25;;;26.40;82.70;;;;;;5016759;28;20504;-72
2023/05/13 09:10:20;;;;;;;4.38;3.38;;;26.50;81.50;;;;;;5016741;28;20046;-72
2023/05/13 09:12:53;;;;;;;5.90;3.95;;;26.60;80.30;;;;;;5016119;28;20061;-72
2023/05/13 09:15:23;;;;;;;7.05;4.47;;;26.80;79.10;;;;;;5015995;28;20046;-73
2023/05/13 09:18:03;;;;;;;8.75;4.15;;;26.60;79.00;;;;;;5016078;28;20053;-74
2023/05/13 09:20:29;;;;;;;5.82;4.07;;;26.50;81.00;;;;;;4998920;28;20380;-74
2023/05/13 09:22:58;;;;;;;7.57;3.35;;;26.80;81.10;;;;;;5015579;28;20411;-75
2023/05/13 09:25:25;;;;;;;4.20;3.70;;;26.70;81.90;;;;;;5015320;28;20041;-76
2023/05/13 09:28:02;;;;;;;6.57;3.85;;;26.30;79.50;;;;;;5015319;28;20050;-76
2023/05/13 09:30:41;;;;;;;3.78;3.45;;;26.20;77.80;;;;;;4998362;28;20057;-75
2023/05/13 09:33:15;;;;;;;5.30;3.90;;;26.10;76.60;;;;;;5015740;28;20138;-76
2023/05/13 09:35:43;;;;;;;6.53;3.55;;;26.20;77.90;;;;;;4998113;28;20049;-75
2023/05/13 09:38:15;;;;;;;6.25;4.28;;;26.30;80.50;;;;;;5015526;28;20075;-78
2023/05/13 09:40:49;;;;;;;5.57;3.70;;;26.40;80.20;;;;;;5015083;28;20049;-76
2023/05/13 09:43:15;;;;;;;4.68;4.18;;;26.30;77.90;;;;;;4997389;28;20097;-77
2023/05/13 09:45:41;;;;;;;7.82;4.63;;;26.40;80.70;;;;;;5015591;28;20093;-77
2023/05/13 09:48:07;;;;;;;6.38;3.47;;;26.20;80.60;;;;;;4996345;28;20391;-76
2023/05/13 09:50:33;;;;;;;6.57;4.90;;;26.40;80.60;;;;;;5014837;28;20046;-78
2023/05/13 09:53:10;;;;;;;9.43;4.68;;;26.30;80.30;;;;;;4997892;28;20076;-76
2023/05/13 09:55:36;;;;;;;7.45;4.30;;;26.00;78.60;;;;;;4997600;28;20075;-76
2023/05/13 09:58:10;;;;;;;4.88;3.90;;;25.30;78.60;;;;;;5014566;28;20132;-77
2023/05/13 10:00:36;;;;;;;7.13;4.10;;;25.60;80.60;;;;;;5014508;28;20053;-77
2023/05/13 10:03:04;;;;;;;4.22;3.83;;;25.70;81.50;;;;;;5014641;28;20045;-76
2023/05/13 10:05:31;;;;;;;5.28;3.80;;;25.70;81.20;;;;;;5014453;28;20049;-76
2023/05/13 10:07:58;;;;;;;7.63;3.30;;;25.40;78.70;;;;;;4996984;28;20049;-76
2023/05/13 10:10:24;;;;;;;5.78;4.03;;;25.10;76.40;;;;;;5014405;28;20053;-76
2023/05/13 10:12:51;;;;;;;3.80;3.50;;;25.20;78.90;;;;;;5014181;28;20041;-76
2023/05/13 10:15:17;;;;;;;4.35;3.95;;;25.00;78.00;;;;;;4996915;28;20455;-76
2023/05/13 10:17:43;;;;;;;6.00;3.55;;;24.90;79.10;;;;;;4997308;28;20105;-76
2023/05/13 10:20:09;;;;;;;3.17;2.97;;;24.70;79.00;;;;;;4996390;28;20479;-76
2023/05/13 10:22:36;;;;;;;3.70;3.00;;;24.60;75.60;;;;;;5014409;28;20042;-77
2023/05/13 10:25:03;;;;;;;7.32;3.78;;;24.90;78.40;;;;;;4997003;28;20127;-76
2023/05/13 10:27:31;;;;;;;6.32;3.75;;;25.20;78.80;;;;;;5013946;28;20054;-75
2023/05/13 10:29:59;;;;;;;5.65;3.63;;;25.50;78.00;;;;;;5014040;28;20042;-76
2023/05/13 10:32:27;;;;;;;6.38;4.20;;;25.50;76.80;;;;;;4996425;28;20046;-76
2023/05/13 10:35:14;;;;;;;7.20;4.50;;;25.60;79.40;;;;;;5013830;28;20092;-75
2023/05/13 10:38:10;;;;;;;5.82;4.30;;;25.60;78.10;;;;;;5013765;28;20058;-76
2023/05/13 10:40:51;;;;;;;8.23;4.30;;;25.80;79.80;;;;;;4980345;28;20056;-76
2023/05/13 10:43:18;;;;;;;5.07;4.60;;;25.80;80.60;;;;;;5013723;28;20092;-75
2023/05/13 10:45:51;;;;;;;6.65;4.68;;;25.50;80.50;;;;;;5013784;28;20053;-77
2023/05/13 10:48:17;;;;;;;9.13;4.15;;;25.50;79.80;;;;;;5014447;28;20125;-76
2023/05/13 10:51:00;;;;;;;7.80;4.85;;;25.40;81.30;;;;;;5013389;28;20068;-77
2023/05/13 10:53:36;;;;;;;5.07;4.35;;;24.90;78.50;;;;;;5013536;28;20053;-77
2023/05/13 10:56:06;;;;;;;6.10;4.60;;;25.00;80.20;;;;;;5013630;28;20049;-76
2023/05/13 10:58:36;;;;;;;8.55;5.32;;;24.70;82.40;;;;;;4995950;28;20050;-75
2023/05/13 11:01:16;;;;;;;5.15;4.43;;;24.30;82.40;;;;;;5013248;28;20486;-76
2023/05/13 11:04:12;;;;;;;6.45;4.80;;;24.00;82.10;;;;;;5013450;28;20045;-75
2023/05/13 11:06:40;;;;;;;5.78;5.28;;;23.80;82.10;;;;;;5011876;28;20057;-75
2023/05/13 11:09:06;;;;;;;6.13;4.60;;;23.70;83.30;;;;;;5013407;28;20128;-76
2023/05/13 11:11:34;;;;;;;8.70;4.40;;;23.20;82.10;;;;;;5013037;28;20056;-75
2023/05/13 11:14:19;;;;;;;6.35;4.00;;;23.20;82.90;;;;;;5012904;28;20038;-75
2023/05/13 11:16:57;;;;;;;5.10;3.35;;;23.30;82.00;;;;;;4995994;28;20481;-73
2023/05/13 11:19:28;;;;;;;6.28;3.72;;;23.40;80.80;;;;;;5013415;28;20119;-79
2023/05/13 11:22:11;;;;;;;7.25;3.92;;;23.60;80.20;;;;;;4995651;28;20103;-76
2023/05/13 11:24:37;;;;;;;5.90;4.10;;;23.30;79.50;;;;;;5013261;28;20049;-76
2023/05/13 11:27:17;;;;;;;5.47;3.63;;;23.50;80.20;;;;;;4995146;28;20100;-77
2023/05/13 11:29:54;;;;;;;5.65;3.75;;;23.40;77.80;;;;;;5012912;28;20129;-76
2023/05/13 11:32:57;;;;;;;7.85;4.05;;;23.60;78.10;;;;;;5013203;28;20050;-76
2023/05/13 11:35:31;;;;;;;3.50;3.20;;;23.70;76.30;;;;;;4995943;28;20506;-75
2023/05/13 11:37:59;;;;;;;4.30;3.30;;;23.70;76.20;;;;;;5012869;28;20046;-76
2023/05/13 11:40:29;;;;;;;6.47;4.05;;;23.80;75.70;;;;;;5013294;28;20096;-77
2023/05/13 11:42:55;;;;;;;4.95;3.97;;;23.70;76.60;;;;;;4995516;28;20077;-75
2023/05/13 11:45:23;;;;;;;5.95;3.50;;;23.80;76.30;;;;;;5012609;28;20120;-74
2023/05/13 11:47:51;;;;;;;4.00;3.22;;;23.80;74.40;;;;;;5012604;28;20061;-75
2023/05/13 11:50:31;;;;;;;5.57;4.35;;;23.90;74.70;;;;;;5012727;28;20054;-74
2023/05/13 11:52:59;;;;;;;3.78;3.53;;;23.90;76.10;;;;;;5012610;28;20037;-76
2023/05/13 11:55:35;;;;;;;7.38;3.83;;;23.80;75.70;;;;;;5012475;28;20054;-77
2023/05/13 11:58:00;;;;;;;6.45;4.05;;;23.90;75.30;;;;;;5012375;28;20504;-76
2023/05/13 12:00:31;;;;;;;3.97;3.67;;;23.90;75.90;;;;;;5012475;28;20069;-76
2023/05/13 12:02:58;;;;;;;3.80;3.50;;;24.10;76.10;;;;;;5012442;28;20046;-78
2023/05/13 12:05:24;;;;;;;5.10;4.43;;;24.30;77.40;;;;;;5012398;28;20045;-75
2023/05/13 12:07:51;;;;;;;7.07;3.85;;;24.00;77.30;;;;;;5012419;28;20046;-77
2023/05/13 12:10:17;;;;;;;4.28;3.88;;;23.60;78.70;;;;;;4995449;28;20530;-75
2023/05/13 12:12:44;;;;;;;4.45;3.72;;;23.30;79.60;;;;;;5014862;28;20133;-77
2023/05/13 12:15:16;;;;;;;4.32;3.90;;;23.30;78.00;;;;;;4999142;28;20053;-76
2023/05/13 12:17:42;;;;;;;5.55;4.05;;;23.50;78.10;;;;;;5016547;28;20121;-74
2023/05/13 12:20:16;;;;;;;5.93;4.05;;;23.50;78.00;;;;;;4998971;28;20091;-77
2023/05/13 12:22:41;;;;;;;5.20;3.58;;;23.30;74.30;;;;;;5017275;28;20049;-74
2023/05/13 12:25:35;;;;;;;4.15;3.72;;;23.50;76.70;;;;;;5000432;28;20105;-76
2023/05/13 12:28:22;;;;;;;4.95;3.45;;;23.70;80.30;;;;;;5017207;28;20053;-74
2023/05/13 12:30:59;;;;;;;4.38;3.97;;;23.80;77.50;;;;;;4999436;28;20046;-81
2023/05/13 12:33:30;;;;;;;5.90;4.50;;;23.50;76.80;;;;;;5016607;28;20499;-77
2023/05/13 12:36:24;;;;;;;5.97;3.45;;;23.20;77.90;;;;;;4999611;28;20185;-76
2023/05/13 12:38:54;;;;;;;5.65;4.57;;;23.30;78.10;;;;;;5016477;28;20108;-76
2023/05/13 12:41:21;;;;;;;6.43;4.43;;;23.40;81.90;;;;;;4982952;28;20054;-75